createdAt,value
2018-12-05T00:01:17.585Z,2.50
2018-12-05T00:03:45.249Z,2.40
2018-12-05T00:06:12.953Z,2.40
2018-12-05T00:08:40.679Z,2.40
2018-12-05T00:11:08.353Z,2.40
2018-12-05T00:13:36.086Z,2.30
2018-12-05T00:16:03.812Z,2.30
2018-12-05T00:18:31.534Z,2.20
2018-12-05T00:20:59.211Z,2.20
2018-12-05T00:23:26.901Z,2.10
2018-12-05T00:25:54.593Z,2.10
2018-12-05T00:28:22.313Z,2.00
2018-12-05T00:30:50.005Z,2.00
2018-12-05T00:33:17.689Z,2.00
2018-12-05T00:35:45.551Z,2.00
2018-12-05T00:38:13.225Z,1.90
2018-12-05T00:40:40.889Z,1.90
2018-12-05T00:43:08.587Z,1.90
2018-12-05T00:45:36.269Z,1.90
2018-12-05T00:48:04.121Z,1.80
2018-12-05T00:50:31.820Z,1.80
2018-12-05T00:52:59.505Z,1.80
2018-12-05T00:55:27.183Z,1.70
2018-12-05T00:57:54.903Z,1.70
2018-12-05T01:00:22.593Z,1.70
2018-12-05T01:02:50.304Z,1.70
2018-12-05T01:05:18.004Z,1.70
2018-12-05T01:07:45.719Z,1.70
2018-12-05T01:10:13.426Z,1.60
2018-12-05T01:12:41.135Z,1.60
2018-12-05T01:15:08.929Z,1.60
2018-12-05T01:17:36.647Z,1.60
2018-12-05T01:20:05.401Z,1.60
2018-12-05T01:22:33.069Z,1.60
2018-12-05T01:25:00.784Z,1.60
2018-12-05T01:27:28.493Z,1.60
2018-12-05T01:29:56.197Z,1.60
2018-12-05T01:32:23.877Z,1.60
2018-12-05T01:34:51.622Z,1.50
2018-12-05T01:37:19.347Z,1.50
2018-12-05T01:39:47.997Z,1.50
2018-12-05T01:42:15.785Z,1.50
2018-12-05T01:44:43.602Z,1.40
2018-12-05T01:47:11.404Z,1.40
2018-12-05T01:49:39.089Z,1.40
2018-12-05T01:52:06.763Z,1.40
2018-12-05T01:54:34.483Z,1.30
2018-12-05T01:57:02.227Z,1.30
2018-12-05T01:59:29.933Z,1.30
2018-12-05T02:01:57.625Z,1.30
2018-12-05T02:04:25.367Z,1.30
2018-12-05T02:06:53.043Z,1.30
2018-12-05T02:09:20.723Z,1.30
2018-12-05T02:11:48.441Z,1.40
2018-12-05T02:14:16.145Z,1.40
2018-12-05T02:16:43.813Z,1.30
2018-12-05T02:19:11.549Z,1.30
2018-12-05T02:21:39.259Z,1.30
2018-12-05T02:24:07.042Z,1.30
2018-12-05T02:26:34.733Z,1.30
2018-12-05T02:29:02.400Z,1.20
2018-12-05T02:31:30.229Z,1.20
2018-12-05T02:33:57.928Z,1.30
2018-12-05T02:36:25.611Z,1.20
2018-12-05T02:38:53.374Z,1.20
2018-12-05T02:41:21.081Z,1.20
2018-12-05T02:43:48.827Z,1.20
2018-12-05T02:46:16.529Z,1.20
2018-12-05T02:48:44.281Z,1.20
2018-12-05T02:51:12.014Z,1.10
2018-12-05T02:53:39.731Z,1.20
2018-12-05T02:56:07.490Z,1.20
2018-12-05T02:58:35.192Z,1.20
2018-12-05T03:01:02.903Z,1.20
2018-12-05T03:03:30.609Z,1.20
2018-12-05T03:05:58.397Z,1.10
2018-12-05T03:08:26.107Z,1.10
2018-12-05T03:10:53.873Z,1.10
2018-12-05T03:13:21.537Z,1.10
2018-12-05T03:15:49.230Z,1.10
2018-12-05T03:18:16.941Z,1.10
2018-12-05T03:20:44.649Z,1.20
2018-12-05T03:23:12.334Z,1.10
2018-12-05T03:25:40.068Z,1.20
2018-12-05T03:28:07.728Z,1.20
2018-12-05T03:30:35.429Z,1.20
2018-12-05T03:33:03.145Z,1.20
2018-12-05T03:35:45.780Z,1.20
2018-12-05T03:38:13.649Z,1.30
2018-12-05T03:40:41.381Z,1.30
2018-12-05T03:43:09.110Z,1.30
2018-12-05T03:45:36.817Z,1.40
2018-12-05T03:48:04.584Z,1.40
2018-12-05T03:50:32.281Z,1.40
2018-12-05T03:53:00.027Z,1.40
2018-12-05T03:55:27.693Z,1.30
2018-12-05T03:57:55.401Z,1.40
2018-12-05T04:00:23.146Z,1.40
2018-12-05T04:02:50.825Z,1.30
2018-12-05T04:05:18.654Z,1.30
2018-12-05T04:07:46.397Z,1.40
2018-12-05T04:10:14.097Z,1.40
2018-12-05T04:12:41.801Z,1.40
2018-12-05T04:15:16.362Z,1.30
2018-12-05T04:17:44.062Z,1.30
2018-12-05T04:20:11.904Z,1.30
2018-12-05T04:22:39.694Z,1.20
2018-12-05T04:25:07.466Z,1.30
2018-12-05T04:27:35.207Z,1.30
2018-12-05T04:30:03.310Z,1.20
2018-12-05T04:32:31.041Z,1.20
2018-12-05T04:34:58.829Z,1.20
2018-12-05T04:37:27.591Z,1.20
2018-12-05T04:39:55.380Z,1.10
2018-12-05T04:42:23.101Z,1.10
2018-12-05T04:44:50.804Z,1.10
2018-12-05T04:47:18.483Z,1.00
2018-12-05T04:49:46.293Z,1.00
2018-12-05T04:52:14.055Z,1.10
2018-12-05T04:54:41.744Z,1.00
2018-12-05T04:57:09.445Z,1.00
2018-12-05T04:59:37.205Z,1.00
2018-12-05T05:02:05.137Z,0.90
2018-12-05T05:04:32.854Z,0.90
2018-12-05T05:07:00.591Z,0.90
2018-12-05T05:09:28.279Z,0.90
2018-12-05T05:11:56.025Z,0.90
2018-12-05T05:14:23.827Z,0.90
2018-12-05T05:16:51.507Z,0.90
2018-12-05T05:19:19.207Z,0.90
2018-12-05T05:21:46.920Z,0.90
2018-12-05T05:24:14.627Z,0.90
2018-12-05T05:26:42.289Z,0.80
2018-12-05T05:29:10.021Z,0.80
2018-12-05T05:31:37.739Z,0.80
2018-12-05T05:34:05.514Z,0.80
2018-12-05T05:36:33.247Z,0.80
2018-12-05T05:39:00.928Z,0.70
2018-12-05T05:41:28.615Z,0.70
2018-12-05T05:43:56.496Z,0.70
2018-12-05T05:46:24.259Z,0.70
2018-12-05T05:48:51.989Z,0.70
2018-12-05T05:51:19.707Z,0.70
2018-12-05T05:53:47.413Z,0.70
2018-12-05T05:56:15.109Z,0.70
2018-12-05T05:58:42.859Z,0.70
2018-12-05T06:01:10.601Z,0.70
2018-12-05T06:03:38.292Z,0.70
2018-12-05T06:06:06.073Z,0.60
2018-12-05T06:08:33.812Z,0.60
2018-12-05T06:11:01.675Z,0.60
2018-12-05T06:13:29.428Z,0.60
2018-12-05T06:15:57.354Z,0.60
2018-12-05T06:18:25.196Z,0.60
2018-12-05T06:20:53.111Z,0.60
2018-12-05T06:23:20.821Z,0.60
2018-12-05T06:25:48.597Z,0.50
2018-12-05T06:28:16.384Z,0.50
2018-12-05T06:30:44.108Z,0.60
2018-12-05T06:33:11.849Z,0.70
2018-12-05T06:35:39.626Z,0.80
2018-12-05T06:40:41.789Z,0.90
2018-12-05T06:43:09.537Z,0.90
2018-12-05T06:45:37.281Z,0.90
2018-12-05T06:48:04.969Z,0.90
2018-12-05T06:50:32.975Z,0.90
2018-12-05T06:53:00.705Z,0.90
2018-12-05T06:55:28.356Z,0.90
2018-12-05T06:57:56.003Z,0.90
2018-12-05T07:00:23.725Z,0.90
2018-12-05T07:02:51.449Z,0.90
2018-12-05T07:05:19.158Z,0.90
2018-12-05T07:07:46.835Z,0.90
2018-12-05T07:10:14.539Z,1.00
2018-12-05T07:12:42.202Z,1.00
2018-12-05T07:15:09.827Z,1.00
2018-12-05T07:17:37.666Z,1.00
2018-12-05T07:20:07.501Z,1.20
2018-12-05T07:22:35.179Z,1.20
2018-12-05T07:25:03.021Z,1.20
2018-12-05T07:27:30.743Z,1.20
2018-12-05T07:29:58.450Z,1.20
2018-12-05T07:32:26.214Z,1.20
2018-12-05T07:34:53.874Z,1.20
2018-12-05T07:37:21.537Z,1.30
2018-12-05T07:39:49.317Z,1.40
2018-12-05T07:42:16.979Z,1.40
2018-12-05T07:44:44.617Z,1.50
2018-12-05T07:47:12.336Z,1.60
2018-12-05T07:49:40.005Z,1.70
2018-12-05T07:52:07.663Z,1.90
2018-12-05T07:54:35.382Z,1.90
2018-12-05T07:57:03.151Z,2.00
2018-12-05T07:59:30.782Z,1.90
2018-12-05T08:01:58.441Z,2.10
2018-12-05T08:04:26.082Z,2.10
2018-12-05T08:06:53.717Z,2.00
2018-12-05T08:09:21.394Z,2.00
2018-12-05T08:11:49.059Z,2.00
2018-12-05T08:14:16.717Z,2.00
2018-12-05T08:16:44.400Z,1.90
2018-12-05T08:19:12.040Z,2.00
2018-12-05T08:21:39.788Z,2.10
2018-12-05T08:24:07.457Z,2.10
2018-12-05T08:29:09.424Z,2.00
2018-12-05T08:31:37.094Z,2.10
2018-12-05T08:34:04.804Z,2.20
2018-12-05T08:36:32.480Z,2.20
2018-12-05T08:39:00.132Z,2.20
2018-12-05T08:41:27.816Z,2.30
2018-12-05T08:43:55.528Z,2.20
2018-12-05T08:46:23.186Z,2.20
2018-12-05T08:48:52.115Z,2.30
2018-12-05T08:51:20.100Z,2.40
2018-12-05T08:53:47.767Z,2.50
2018-12-05T08:56:15.549Z,2.50
2018-12-05T08:58:43.226Z,2.40
2018-12-05T09:01:10.940Z,2.40
2018-12-05T09:03:38.593Z,2.40
2018-12-05T09:06:06.346Z,2.50
2018-12-05T09:08:34.223Z,2.50
2018-12-05T09:11:01.938Z,2.50
2018-12-05T09:13:30.172Z,2.50
2018-12-05T09:15:57.830Z,2.50
2018-12-05T09:18:25.546Z,2.70
2018-12-05T09:20:53.250Z,2.70
2018-12-05T09:23:20.907Z,2.80
2018-12-05T09:25:48.626Z,2.90
2018-12-05T09:28:16.285Z,3.00
2018-12-05T09:30:43.948Z,3.00
2018-12-05T09:33:11.748Z,2.80
2018-12-05T09:35:41.339Z,3.00
2018-12-05T09:38:08.951Z,3.10
2018-12-05T09:40:36.620Z,3.20
2018-12-05T09:43:04.459Z,3.20
2018-12-05T09:45:32.124Z,3.20
2018-12-05T09:47:59.801Z,3.30
2018-12-05T09:50:27.486Z,3.40
2018-12-05T09:52:55.170Z,3.40
2018-12-05T09:55:22.880Z,3.30
2018-12-05T09:57:50.586Z,3.30
2018-12-05T10:00:18.244Z,3.20
2018-12-05T10:02:45.920Z,3.20
2018-12-05T10:05:13.612Z,3.20
2018-12-05T10:07:41.296Z,3.20
2018-12-05T10:10:09.241Z,3.20
2018-12-05T10:12:36.921Z,3.20
2018-12-05T10:15:05.757Z,3.20
2018-12-05T10:17:33.463Z,3.30
2018-12-05T10:20:01.131Z,3.30
2018-12-05T10:22:28.821Z,3.30
2018-12-05T10:24:56.500Z,3.40
2018-12-05T10:27:26.013Z,3.40
2018-12-05T10:29:53.745Z,3.50
2018-12-05T10:32:21.412Z,3.60
2018-12-05T10:34:49.129Z,3.60
2018-12-05T10:37:16.941Z,3.70
2018-12-05T10:39:44.591Z,3.70
2018-12-05T10:42:12.295Z,3.70
2018-12-05T10:44:39.978Z,3.80
2018-12-05T10:47:07.669Z,3.80
2018-12-05T10:49:35.357Z,3.90
2018-12-05T10:52:09.640Z,3.90
2018-12-05T10:54:37.366Z,3.90
2018-12-05T10:57:05.178Z,4.00
2018-12-05T10:59:32.984Z,4.00
2018-12-05T11:03:04.296Z,4.10
2018-12-05T11:05:37.668Z,3.90
2018-12-05T11:08:10.904Z,3.90
2018-12-05T11:10:44.364Z,3.90
2018-12-05T11:13:19.269Z,3.90
2018-12-05T11:15:53.642Z,4.00
2018-12-05T11:18:27.122Z,4.00
2018-12-05T11:21:00.410Z,4.00
2018-12-05T11:23:33.650Z,4.10
2018-12-05T11:26:05.867Z,4.00
2018-12-05T11:28:33.708Z,4.10
2018-12-05T11:31:01.412Z,4.10
2018-12-05T11:33:29.310Z,4.20
2018-12-05T11:35:57.068Z,4.10
2018-12-05T11:38:24.804Z,4.20
2018-12-05T11:40:52.618Z,4.20
2018-12-05T11:43:20.448Z,4.10
2018-12-05T11:45:48.116Z,4.10
2018-12-05T11:48:15.920Z,4.10
2018-12-05T11:50:43.572Z,4.20
2018-12-05T11:53:11.234Z,4.20
2018-12-05T11:55:38.897Z,4.20
2018-12-05T11:58:06.572Z,4.10
2018-12-05T12:00:34.286Z,4.10
2018-12-05T12:03:02.797Z,4.10
2018-12-05T12:05:30.464Z,4.00
2018-12-05T12:07:58.116Z,4.00
2018-12-05T12:10:31.488Z,3.90
2018-12-05T12:13:05.370Z,3.70
2018-12-05T12:15:33.235Z,3.80
2018-12-05T12:18:01.420Z,3.80
2018-12-05T12:20:29.172Z,3.70
2018-12-05T12:22:56.864Z,3.60
2018-12-05T12:25:25.119Z,3.60
2018-12-05T12:27:52.760Z,3.60
2018-12-05T12:30:20.474Z,3.60
2018-12-05T12:32:48.152Z,3.60
2018-12-05T12:35:15.843Z,3.60
2018-12-05T12:37:43.512Z,3.60
2018-12-05T12:40:11.182Z,3.60
2018-12-05T12:42:38.864Z,3.60
2018-12-05T12:45:07.084Z,3.60
2018-12-05T12:47:34.770Z,3.60
2018-12-05T12:50:02.604Z,3.60
2018-12-05T12:52:30.322Z,3.50
2018-12-05T12:54:58.167Z,3.40
2018-12-05T12:57:29.308Z,3.30
2018-12-05T12:59:57.312Z,3.30
2018-12-05T13:02:24.994Z,3.30
2018-12-05T13:04:52.709Z,3.40
2018-12-05T13:07:20.475Z,3.40
2018-12-05T13:09:48.188Z,3.30
2018-12-05T13:12:21.604Z,3.30
2018-12-05T13:14:49.344Z,3.40
2018-12-05T13:17:17.032Z,3.20
2018-12-05T13:19:44.749Z,3.40
2018-12-05T13:22:12.524Z,3.40
2018-12-05T13:24:40.232Z,3.50
2018-12-05T13:27:07.997Z,3.40
2018-12-05T13:29:35.697Z,3.40
2018-12-05T13:32:03.470Z,3.30
2018-12-05T13:34:31.220Z,3.30
2018-12-05T13:36:59.008Z,3.30
2018-12-05T13:39:26.845Z,3.20
2018-12-05T13:41:54.617Z,3.20
2018-12-05T13:44:22.356Z,3.10
2018-12-05T13:46:50.200Z,3.10
2018-12-05T13:49:18.081Z,3.10
2018-12-05T13:51:45.885Z,3.00
2018-12-05T13:54:14.835Z,3.00
2018-12-05T13:56:42.779Z,2.90
2018-12-05T13:59:10.475Z,2.90
2018-12-05T14:01:38.178Z,2.80
2018-12-05T14:04:05.885Z,2.70
2018-12-05T14:06:33.573Z,2.70
2018-12-05T14:09:01.376Z,2.60
2018-12-05T14:11:29.142Z,2.50
2018-12-05T14:13:56.865Z,2.50
2018-12-05T14:16:24.563Z,2.40
2018-12-05T14:18:54.015Z,2.40
2018-12-05T14:21:21.769Z,2.40
2018-12-05T14:23:49.740Z,2.30
2018-12-05T14:26:17.438Z,2.30
2018-12-05T14:28:45.101Z,2.30
2018-12-05T14:31:12.873Z,2.30
2018-12-05T14:33:40.621Z,2.20
2018-12-05T14:36:08.316Z,2.10
2018-12-05T14:38:36.028Z,2.10
2018-12-05T14:41:04.149Z,2.00
2018-12-05T14:43:31.848Z,2.00
2018-12-05T14:45:59.645Z,1.80
2018-12-05T14:48:27.425Z,1.90
2018-12-05T14:50:55.165Z,1.90
2018-12-05T14:53:22.989Z,1.80
2018-12-05T14:55:50.703Z,1.80
2018-12-05T14:58:18.510Z,1.70
2018-12-05T15:00:46.886Z,1.70
2018-12-05T15:03:14.599Z,1.60
2018-12-05T15:05:42.363Z,1.60
2018-12-05T15:08:10.109Z,1.60
2018-12-05T15:10:38.002Z,1.60
2018-12-05T15:13:12.538Z,1.70
2018-12-05T15:15:40.402Z,1.80
2018-12-05T15:18:08.161Z,1.80
2018-12-05T15:20:36.027Z,1.70
2018-12-05T15:23:03.938Z,1.80
2018-12-05T15:25:31.635Z,1.80
2018-12-05T15:27:59.321Z,1.90
2018-12-05T15:30:27.171Z,2.00
2018-12-05T15:32:56.923Z,2.00
2018-12-05T15:35:24.753Z,2.00
2018-12-05T15:37:52.469Z,2.00
2018-12-05T15:40:20.207Z,1.90
2018-12-05T15:42:47.899Z,1.90
2018-12-05T15:45:22.355Z,1.80
2018-12-05T15:47:50.051Z,1.70
2018-12-05T15:50:18.167Z,1.70
2018-12-05T15:52:46.065Z,1.60
2018-12-05T15:55:14.077Z,1.60
2018-12-05T15:57:41.744Z,1.50
2018-12-05T16:00:09.973Z,1.50
2018-12-05T16:02:37.666Z,1.40
2018-12-05T16:05:06.435Z,1.40
2018-12-05T16:07:34.154Z,1.40
2018-12-05T16:10:01.900Z,1.40
2018-12-05T16:12:29.569Z,1.30
2018-12-05T16:14:57.300Z,1.40
2018-12-05T16:17:24.960Z,1.50
2018-12-05T16:19:52.643Z,1.50
2018-12-05T16:22:20.309Z,1.50
2018-12-05T16:24:47.985Z,1.50
2018-12-05T16:27:15.636Z,1.50
2018-12-05T16:29:43.533Z,1.50
2018-12-05T16:32:11.228Z,1.50
2018-12-05T16:34:39.659Z,1.50
2018-12-05T16:37:07.415Z,1.40
2018-12-05T16:39:35.121Z,1.40
2018-12-05T16:42:02.794Z,1.40
2018-12-05T16:44:30.468Z,1.30
2018-12-05T16:46:58.231Z,1.30
2018-12-05T16:49:25.932Z,1.20
2018-12-05T16:51:53.694Z,1.20
2018-12-05T16:54:22.130Z,1.10
2018-12-05T16:56:50.122Z,1.10
2018-12-05T16:59:17.869Z,1.00
2018-12-05T17:01:45.640Z,1.00
2018-12-05T17:04:13.381Z,0.90
2018-12-05T17:06:41.073Z,0.90
2018-12-05T17:09:08.832Z,0.90
2018-12-05T17:11:36.669Z,0.80
2018-12-05T17:14:04.404Z,0.80
2018-12-05T17:16:32.145Z,0.70
2018-12-05T17:18:59.860Z,0.70
2018-12-05T17:21:27.588Z,0.70
2018-12-05T17:23:55.339Z,0.70
2018-12-05T17:26:23.186Z,0.70
2018-12-05T17:28:50.904Z,0.70
2018-12-05T17:31:18.603Z,0.60
2018-12-05T17:33:46.316Z,0.60
2018-12-05T17:36:14.141Z,0.50
2018-12-05T17:38:41.892Z,0.50
2018-12-05T17:41:09.570Z,0.50
2018-12-05T17:43:37.283Z,0.50
2018-12-05T17:46:04.957Z,0.40
2018-12-05T17:48:32.585Z,0.40
2018-12-05T17:51:00.381Z,0.40
2018-12-05T17:53:28.099Z,0.30
2018-12-05T17:55:55.794Z,0.30
2018-12-05T17:58:23.505Z,0.30
2018-12-05T18:00:51.196Z,0.30
2018-12-05T18:03:18.850Z,0.30
2018-12-05T18:05:46.546Z,0.30
2018-12-05T18:08:14.296Z,0.30
2018-12-05T18:10:41.978Z,0.30
2018-12-05T18:13:11.743Z,0.30
2018-12-05T18:15:39.418Z,0.30
2018-12-05T18:18:07.126Z,0.30
2018-12-05T18:20:34.864Z,0.30
2018-12-05T18:23:02.570Z,0.30
2018-12-05T18:25:30.290Z,0.20
2018-12-05T18:27:58.053Z,0.20
2018-12-05T18:30:25.732Z,0.20
2018-12-05T18:32:53.458Z,0.20
2018-12-05T18:35:21.171Z,0.20
2018-12-05T18:37:48.863Z,0.20
2018-12-05T18:40:16.798Z,0.20
2018-12-05T18:42:44.638Z,0.20
2018-12-05T18:45:12.469Z,0.20
2018-12-05T18:47:40.263Z,0.10
2018-12-05T18:50:08.102Z,0.10
2018-12-05T18:52:35.785Z,0.10
2018-12-05T18:55:03.845Z,0.10
2018-12-05T18:57:31.693Z,0.10
2018-12-05T19:00:01.415Z,0.00
2018-12-05T19:02:29.567Z,0.10
2018-12-05T19:04:57.443Z,0.10
2018-12-05T19:07:25.143Z,0.10
2018-12-05T19:09:52.829Z,0.10
2018-12-05T19:12:20.612Z,0.10
2018-12-05T19:14:48.293Z,0.00
2018-12-05T19:17:16.022Z,0.00
2018-12-05T19:19:43.826Z,0.10
2018-12-05T19:22:11.922Z,0.10
2018-12-05T19:24:39.670Z,0.00
2018-12-05T19:27:07.397Z,0.10
2018-12-05T19:29:35.110Z,0.10
2018-12-05T19:32:02.844Z,0.10
2018-12-05T19:34:30.586Z,0.10
2018-12-05T19:36:58.294Z,0.10
2018-12-05T19:39:25.976Z,0.10
2018-12-05T19:41:54.176Z,0.10
2018-12-05T19:44:21.958Z,0.10
2018-12-05T19:46:49.704Z,0.00
2018-12-05T19:49:17.434Z,0.00
2018-12-05T19:51:45.170Z,0.00
2018-12-05T19:54:12.931Z,0.00
2018-12-05T19:56:40.658Z,0.00
2018-12-05T19:59:08.382Z,-0.10
2018-12-05T20:01:36.058Z,0.00
2018-12-05T20:04:03.998Z,-0.10
2018-12-05T20:06:31.750Z,-0.10
2018-12-05T20:08:59.467Z,-0.20
2018-12-05T20:11:27.350Z,-0.20
2018-12-05T20:13:55.090Z,-0.20
2018-12-05T20:16:23.406Z,-0.30
2018-12-05T20:18:51.194Z,-0.30
2018-12-05T20:21:18.918Z,-0.30
2018-12-05T20:23:46.700Z,-0.30
2018-12-05T20:26:14.486Z,-0.30
2018-12-05T20:28:42.350Z,-0.30
2018-12-05T20:31:10.122Z,-0.30
2018-12-05T20:33:37.930Z,-0.30
2018-12-05T20:36:06.118Z,-0.40
2018-12-05T20:38:34.164Z,-0.40
2018-12-05T20:41:02.042Z,-0.40
2018-12-05T20:43:30.013Z,-0.40
2018-12-05T20:45:57.754Z,-0.50
2018-12-05T20:48:25.515Z,-0.50
2018-12-05T20:50:53.402Z,-0.50
2018-12-05T20:53:21.106Z,-0.50
2018-12-05T20:55:48.860Z,-0.50
2018-12-05T20:58:16.600Z,-0.50
2018-12-05T21:00:44.366Z,-0.50
2018-12-05T21:03:12.187Z,-0.60
2018-12-05T21:05:40.080Z,-0.60
2018-12-05T21:08:11.896Z,-0.60
2018-12-05T21:10:46.354Z,-0.70
2018-12-05T21:13:14.107Z,-0.70
2018-12-05T21:15:41.907Z,-0.80
2018-12-05T21:18:09.683Z,-0.80
2018-12-05T21:20:37.407Z,-0.90
2018-12-05T21:23:05.248Z,-0.90
2018-12-05T21:25:33.070Z,-0.90
2018-12-05T21:28:01.025Z,-0.90
2018-12-05T21:30:28.826Z,-0.90
2018-12-05T21:32:56.559Z,-1.00
2018-12-05T21:35:24.290Z,-1.00
2018-12-05T21:37:52.070Z,-1.00
2018-12-05T21:40:23.043Z,-1.00
2018-12-05T21:42:52.703Z,-1.00
2018-12-05T21:45:20.412Z,-1.00
2018-12-05T21:47:48.241Z,-1.10
2018-12-05T21:50:15.975Z,-1.20
2018-12-05T21:52:51.158Z,-1.20
2018-12-05T21:55:18.951Z,-1.30
2018-12-05T21:57:46.731Z,-1.30
2018-12-05T22:00:14.702Z,-1.40
2018-12-05T22:02:46.440Z,-1.40
2018-12-05T22:05:14.192Z,-1.40
2018-12-05T22:07:41.976Z,-1.50
2018-12-05T22:10:09.855Z,-1.50
2018-12-05T22:12:37.660Z,-1.50
2018-12-05T22:15:06.254Z,-1.60
2018-12-05T22:17:34.417Z,-1.60
2018-12-05T22:20:02.182Z,-1.60
2018-12-05T22:22:29.975Z,-1.60
2018-12-05T22:24:57.740Z,-1.70
2018-12-05T22:27:25.470Z,-1.70
2018-12-05T22:29:53.282Z,-1.70
2018-12-05T22:32:21.016Z,-1.80
2018-12-05T22:34:48.738Z,-1.80
2018-12-05T22:37:16.522Z,-1.80
2018-12-05T22:39:44.246Z,-1.80
2018-12-05T22:42:11.958Z,-1.70
2018-12-05T22:44:39.720Z,-1.80
2018-12-05T22:47:07.426Z,-1.80
2018-12-05T22:49:35.178Z,-1.90
2018-12-05T22:52:02.930Z,-1.90
2018-12-05T22:54:30.678Z,-1.90
2018-12-05T22:57:09.866Z,-2.00
2018-12-05T22:59:37.586Z,-2.00
2018-12-05T23:02:05.314Z,-2.00
2018-12-05T23:04:33.112Z,-2.00
2018-12-05T23:07:00.875Z,-2.00
2018-12-05T23:09:28.656Z,-2.10
2018-12-05T23:11:56.546Z,-2.10
2018-12-05T23:14:24.324Z,-2.10
2018-12-05T23:16:52.268Z,-2.10
2018-12-05T23:19:20.068Z,-2.00
2018-12-05T23:21:47.826Z,-2.00
2018-12-05T23:24:15.586Z,-2.10
2018-12-05T23:26:43.386Z,-2.10
2018-12-05T23:29:11.136Z,-2.20
2018-12-05T23:31:38.890Z,-2.20
2018-12-05T23:34:06.804Z,-2.20
2018-12-05T23:36:34.532Z,-2.20
2018-12-05T23:39:03.681Z,-2.20
2018-12-05T23:41:31.446Z,-2.50
2018-12-05T23:43:59.217Z,-2.20
2018-12-05T23:46:26.939Z,-2.30
2018-12-05T23:48:54.706Z,-2.30
2018-12-05T23:51:22.462Z,-2.30
2018-12-05T23:53:50.182Z,-2.30
2018-12-05T23:56:17.927Z,-2.40
2018-12-05T23:58:45.638Z,-2.40
